sensor_id;sensor_type;location;lat;lon;timestamp;temperature;humidity
71627;DHT22;59475;52.464;13.590;2023-02-15T00:01:08;2.97;89.55
71627;DHT22;59475;52.464;13.590;2023-02-15T00:03:35;2.86;89.73
71627;DHT22;59475;52.464;13.590;2023-02-15T00:06:01;2.75;89.59
71627;DHT22;59475;52.464;13.590;2023-02-15T00:08:27;2.65;89.41
71627;DHT22;59475;52.464;13.590;2023-02-15T00:10:52;2.51;89.10
71627;DHT22;59475;52.464;13.590;2023-02-15T00:13:18;2.42;89.51
71627;DHT22;59475;52.464;13.590;2023-02-15T00:15:43;2.31;89.90
71627;DHT22;59475;52.464;13.590;2023-02-15T00:18:09;2.24;90.14
71627;DHT22;59475;52.464;13.590;2023-02-15T00:20:34;2.14;90.02
71627;DHT22;59475;52.464;13.590;2023-02-15T00:22:59;2.09;90.03
71627;DHT22;59475;52.464;13.590;2023-02-15T00:25:25;2.00;90.12
71627;DHT22;59475;52.464;13.590;2023-02-15T00:27:50;1.92;90.04
71627;DHT22;59475;52.464;13.590;2023-02-15T00:30:16;1.85;90.00
71627;DHT22;59475;52.464;13.590;2023-02-15T00:32:41;1.79;90.11
71627;DHT22;59475;52.464;13.590;2023-02-15T00:35:06;1.76;90.18
71627;DHT22;59475;52.464;13.590;2023-02-15T00:37:32;1.70;90.24
71627;DHT22;59475;52.464;13.590;2023-02-15T00:39:58;1.59;90.24
71627;DHT22;59475;52.464;13.590;2023-02-15T00:42:23;1.56;90.21
71627;DHT22;59475;52.464;13.590;2023-02-15T00:44:49;1.49;90.27
71627;DHT22;59475;52.464;13.590;2023-02-15T00:47:14;1.49;90.31
71627;DHT22;59475;52.464;13.590;2023-02-15T00:49:39;1.47;90.27
71627;DHT22;59475;52.464;13.590;2023-02-15T00:52:05;1.42;90.27
71627;DHT22;59475;52.464;13.590;2023-02-15T00:54:30;1.30;90.72
71627;DHT22;59475;52.464;13.590;2023-02-15T00:56:56;1.21;91.16
71627;DHT22;59475;52.464;13.590;2023-02-15T00:59:21;1.07;91.68
71627;DHT22;59475;52.464;13.590;2023-02-15T01:01:46;0.94;91.31
71627;DHT22;59475;52.464;13.590;2023-02-15T01:04:12;0.89;91.79
71627;DHT22;59475;52.464;13.590;2023-02-15T01:06:37;0.79;91.83
71627;DHT22;59475;52.464;13.590;2023-02-15T01:09:03;0.73;91.89
71627;DHT22;59475;52.464;13.590;2023-02-15T01:11:28;0.69;91.78
71627;DHT22;59475;52.464;13.590;2023-02-15T01:13:55;0.69;91.55
71627;DHT22;59475;52.464;13.590;2023-02-15T01:16:22;0.68;91.45
71627;DHT22;59475;52.464;13.590;2023-02-15T01:18:48;0.63;91.38
71627;DHT22;59475;52.464;13.590;2023-02-15T01:21:18;0.58;91.63
71627;DHT22;59475;52.464;13.590;2023-02-15T01:23:44;0.49;91.50
71627;DHT22;59475;52.464;13.590;2023-02-15T01:26:10;0.42;91.89
71627;DHT22;59475;52.464;13.590;2023-02-15T01:28:36;0.35;91.97
71627;DHT22;59475;52.464;13.590;2023-02-15T01:31:13;0.29;92.12
71627;DHT22;59475;52.464;13.590;2023-02-15T01:33:39;0.24;92.14
71627;DHT22;59475;52.464;13.590;2023-02-15T01:36:05;0.15;92.24
71627;DHT22;59475;52.464;13.590;2023-02-15T01:38:30;0.11;92.68
71627;DHT22;59475;52.464;13.590;2023-02-15T01:40:56;0.07;93.05
71627;DHT22;59475;52.464;13.590;2023-02-15T01:43:46;-0.02;92.79
71627;DHT22;59475;52.464;13.590;2023-02-15T01:46:14;-0.04;93.19
71627;DHT22;59475;52.464;13.590;2023-02-15T01:48:48;-0.11;93.05
71627;DHT22;59475;52.464;13.590;2023-02-15T01:51:17;-0.11;92.99
71627;DHT22;59475;52.464;13.590;2023-02-15T01:53:54;-0.14;92.70
71627;DHT22;59475;52.464;13.590;2023-02-15T01:56:29;-0.14;92.48
71627;DHT22;59475;52.464;13.590;2023-02-15T01:59:00;-0.17;92.44
71627;DHT22;59475;52.464;13.590;2023-02-15T02:01:27;-0.21;92.55
71627;DHT22;59475;52.464;13.590;2023-02-15T02:04:10;-0.28;92.64
71627;DHT22;59475;52.464;13.590;2023-02-15T02:06:39;-0.30;92.61
71627;DHT22;59475;52.464;13.590;2023-02-15T02:09:04;-0.32;92.54
71627;DHT22;59475;52.464;13.590;2023-02-15T02:11:30;-0.38;92.51
71627;DHT22;59475;52.464;13.590;2023-02-15T02:13:56;-0.42;92.65
71627;DHT22;59475;52.464;13.590;2023-02-15T02:22:01;-0.38;92.72
71627;DHT22;59475;52.464;13.590;2023-02-15T02:24:48;-0.38;92.96
71627;DHT22;59475;52.464;13.590;2023-02-15T02:32:52;-0.48;93.00
71627;DHT22;59475;52.464;13.590;2023-02-15T02:35:33;-0.49;92.93
71627;DHT22;59475;52.464;13.590;2023-02-15T02:46:00;-0.55;93.62
71627;DHT22;59475;52.464;13.590;2023-02-15T02:48:30;-0.54;93.46
71627;DHT22;59475;52.464;13.590;2023-02-15T02:50:55;-0.61;93.28
71627;DHT22;59475;52.464;13.590;2023-02-15T02:53:21;-0.62;93.28
71627;DHT22;59475;52.464;13.590;2023-02-15T02:56:50;-0.65;93.37
71627;DHT22;59475;52.464;13.590;2023-02-15T02:58:49;-0.69;93.32
71627;DHT22;59475;52.464;13.590;2023-02-15T03:01:33;-0.72;93.31
71627;DHT22;59475;52.464;13.590;2023-02-15T03:04:05;-0.76;93.30
71627;DHT22;59475;52.464;13.590;2023-02-15T03:06:50;-0.78;93.29
71627;DHT22;59475;52.464;13.590;2023-02-15T03:12:24;-0.83;93.84
71627;DHT22;59475;52.464;13.590;2023-02-15T03:14:54;-0.83;93.90
71627;DHT22;59475;52.464;13.590;2023-02-15T03:17:22;-0.89;93.75
71627;DHT22;59475;52.464;13.590;2023-02-15T03:19:50;-0.93;93.68
71627;DHT22;59475;52.464;13.590;2023-02-15T03:22:21;-0.96;93.59
71627;DHT22;59475;52.464;13.590;2023-02-15T03:25:08;-0.99;93.80
71627;DHT22;59475;52.464;13.590;2023-02-15T03:27:41;-1.01;93.86
71627;DHT22;59475;52.464;13.590;2023-02-15T03:30:08;-1.07;94.11
71627;DHT22;59475;52.464;13.590;2023-02-15T03:32:36;-1.08;94.32
71627;DHT22;59475;52.464;13.590;2023-02-15T03:35:03;-1.13;94.54
71627;DHT22;59475;52.464;13.590;2023-02-15T03:37:41;-1.14;94.38
71627;DHT22;59475;52.464;13.590;2023-02-15T03:40:31;-1.16;94.58
71627;DHT22;59475;52.464;13.590;2023-02-15T03:43:32;-1.24;94.62
71627;DHT22;59475;52.464;13.590;2023-02-15T03:46:23;-1.31;94.44
71627;DHT22;59475;52.464;13.590;2023-02-15T03:48:55;-1.37;94.30
71627;DHT22;59475;52.464;13.590;2023-02-15T03:51:27;-1.41;94.39
71627;DHT22;59475;52.464;13.590;2023-02-15T03:54:03;-1.47;94.27
71627;DHT22;59475;52.464;13.590;2023-02-15T03:56:28;-1.48;94.55
71627;DHT22;59475;52.464;13.590;2023-02-15T03:58:54;-1.50;94.27
71627;DHT22;59475;52.464;13.590;2023-02-15T04:04:32;-1.54;94.45
71627;DHT22;59475;52.464;13.590;2023-02-15T04:06:58;-1.54;94.50
71627;DHT22;59475;52.464;13.590;2023-02-15T04:09:24;-1.56;94.34
71627;DHT22;59475;52.464;13.590;2023-02-15T04:12:08;-1.56;94.40
71627;DHT22;59475;52.464;13.590;2023-02-15T04:14:34;-1.54;94.43
71627;DHT22;59475;52.464;13.590;2023-02-15T04:17:18;-1.54;94.42
71627;DHT22;59475;52.464;13.590;2023-02-15T04:19:43;-1.56;94.46
71627;DHT22;59475;52.464;13.590;2023-02-15T04:22:27;-1.56;94.48
71627;DHT22;59475;52.464;13.590;2023-02-15T04:25:11;-1.61;94.41
71627;DHT22;59475;52.464;13.590;2023-02-15T04:27:45;-1.65;94.40
71627;DHT22;59475;52.464;13.590;2023-02-15T04:30:12;-1.65;94.69
71627;DHT22;59475;52.464;13.590;2023-02-15T04:32:38;-1.68;94.65
71627;DHT22;59475;52.464;13.590;2023-02-15T04:35:04;-1.68;94.75
71627;DHT22;59475;52.464;13.590;2023-02-15T04:37:30;-1.73;94.90
71627;DHT22;59475;52.464;13.590;2023-02-15T04:39:56;-1.73;94.81
71627;DHT22;59475;52.464;13.590;2023-02-15T04:42:24;-1.78;94.79
71627;DHT22;59475;52.464;13.590;2023-02-15T04:44:50;-1.79;94.69
71627;DHT22;59475;52.464;13.590;2023-02-15T04:47:15;-1.85;94.58
71627;DHT22;59475;52.464;13.590;2023-02-15T04:49:40;-1.83;94.82
71627;DHT22;59475;52.464;13.590;2023-02-15T04:52:06;-1.85;94.96
71627;DHT22;59475;52.464;13.590;2023-02-15T04:54:31;-1.89;94.96
71627;DHT22;59475;52.464;13.590;2023-02-15T04:56:56;-1.87;94.89
71627;DHT22;59475;52.464;13.590;2023-02-15T04:59:22;-1.90;94.92
71627;DHT22;59475;52.464;13.590;2023-02-15T05:01:47;-1.92;94.78
71627;DHT22;59475;52.464;13.590;2023-02-15T05:04:12;-1.94;94.69
71627;DHT22;59475;52.464;13.590;2023-02-15T05:06:38;-1.92;94.85
71627;DHT22;59475;52.464;13.590;2023-02-15T05:09:03;-1.92;94.79
71627;DHT22;59475;52.464;13.590;2023-02-15T05:11:28;-1.92;94.65
71627;DHT22;59475;52.464;13.590;2023-02-15T05:13:54;-1.93;94.67
71627;DHT22;59475;52.464;13.590;2023-02-15T05:16:19;-1.89;94.58
71627;DHT22;59475;52.464;13.590;2023-02-15T05:18:44;-1.86;94.83
71627;DHT22;59475;52.464;13.590;2023-02-15T05:21:10;-1.83;94.94
71627;DHT22;59475;52.464;13.590;2023-02-15T05:23:36;-1.80;94.86
71627;DHT22;59475;52.464;13.590;2023-02-15T05:26:01;-1.75;94.92
71627;DHT22;59475;52.464;13.590;2023-02-15T05:28:45;-1.68;95.17
71627;DHT22;59475;52.464;13.590;2023-02-15T05:31:16;-1.62;95.49
71627;DHT22;59475;52.464;13.590;2023-02-15T05:33:43;-1.56;95.45
71627;DHT22;59475;52.464;13.590;2023-02-15T05:36:08;-1.48;95.44
71627;DHT22;59475;52.464;13.590;2023-02-15T05:38:34;-1.38;95.40
71627;DHT22;59475;52.464;13.590;2023-02-15T05:41:03;-1.28;95.44
71627;DHT22;59475;52.464;13.590;2023-02-15T05:43:28;-1.23;95.32
71627;DHT22;59475;52.464;13.590;2023-02-15T05:45:54;-1.17;95.43
71627;DHT22;59475;52.464;13.590;2023-02-15T05:48:22;-1.17;95.48
71627;DHT22;59475;52.464;13.590;2023-02-15T05:50:57;-1.10;95.52
71627;DHT22;59475;52.464;13.590;2023-02-15T05:53:23;-1.06;95.62
71627;DHT22;59475;52.464;13.590;2023-02-15T05:55:48;-0.99;95.64
71627;DHT22;59475;52.464;13.590;2023-02-15T05:58:14;-0.99;95.72
71627;DHT22;59475;52.464;13.590;2023-02-15T06:00:39;-0.99;95.79
71627;DHT22;59475;52.464;13.590;2023-02-15T06:03:04;-0.96;95.95
71627;DHT22;59475;52.464;13.590;2023-02-15T06:05:30;-0.90;96.05
71627;DHT22;59475;52.464;13.590;2023-02-15T06:07:55;-0.90;96.11
71627;DHT22;59475;52.464;13.590;2023-02-15T06:10:21;-0.87;96.13
71627;DHT22;59475;52.464;13.590;2023-02-15T06:12:46;-0.80;96.12
71627;DHT22;59475;52.464;13.590;2023-02-15T06:15:11;-0.78;96.05
71627;DHT22;59475;52.464;13.590;2023-02-15T06:17:37;-0.78;95.91
71627;DHT22;59475;52.464;13.590;2023-02-15T06:20:03;-0.79;95.98
71627;DHT22;59475;52.464;13.590;2023-02-15T06:22:29;-0.83;96.08
71627;DHT22;59475;52.464;13.590;2023-02-15T06:24:54;-0.82;96.21
71627;DHT22;59475;52.464;13.590;2023-02-15T06:27:20;-0.87;96.21
71627;DHT22;59475;52.464;13.590;2023-02-15T06:29:45;-0.89;96.38
71627;DHT22;59475;52.464;13.590;2023-02-15T06:32:10;-0.86;96.40
71627;DHT22;59475;52.464;13.590;2023-02-15T06:34:36;-0.87;96.34
71627;DHT22;59475;52.464;13.590;2023-02-15T06:37:01;-0.95;96.38
71627;DHT22;59475;52.464;13.590;2023-02-15T06:39:26;-0.95;96.39
71627;DHT22;59475;52.464;13.590;2023-02-15T06:41:52;-0.95;96.40
71627;DHT22;59475;52.464;13.590;2023-02-15T06:44:17;-0.99;96.44
71627;DHT22;59475;52.464;13.590;2023-02-15T06:46:42;-0.95;96.56
71627;DHT22;59475;52.464;13.590;2023-02-15T06:49:08;-0.96;96.62
71627;DHT22;59475;52.464;13.590;2023-02-15T06:51:33;-0.97;96.59
71627;DHT22;59475;52.464;13.590;2023-02-15T06:53:59;-0.92;96.61
71627;DHT22;59475;52.464;13.590;2023-02-15T06:56:24;-0.85;96.71
71627;DHT22;59475;52.464;13.590;2023-02-15T06:58:50;-0.75;96.68
71627;DHT22;59475;52.464;13.590;2023-02-15T07:01:16;-0.69;96.63
71627;DHT22;59475;52.464;13.590;2023-02-15T07:03:41;-0.70;96.31
71627;DHT22;59475;52.464;13.590;2023-02-15T07:06:06;-0.66;96.36
71627;DHT22;59475;52.464;13.590;2023-02-15T07:08:34;-0.68;96.32
71627;DHT22;59475;52.464;13.590;2023-02-15T07:11:02;-0.66;96.32
71627;DHT22;59475;52.464;13.590;2023-02-15T07:13:47;-0.65;96.23
71627;DHT22;59475;52.464;13.590;2023-02-15T07:16:12;-0.58;96.38
71627;DHT22;59475;52.464;13.590;2023-02-15T07:18:39;-0.51;96.43
71627;DHT22;59475;52.464;13.590;2023-02-15T07:21:05;-0.42;96.35
71627;DHT22;59475;52.464;13.590;2023-02-15T07:23:34;-0.35;96.33
71627;DHT22;59475;52.464;13.590;2023-02-15T07:26:00;-0.40;95.89
71627;DHT22;59475;52.464;13.590;2023-02-15T07:28:25;-0.37;95.99
71627;DHT22;59475;52.464;13.590;2023-02-15T07:30:51;-0.37;95.78
71627;DHT22;59475;52.464;13.590;2023-02-15T07:33:16;-0.34;95.83
71627;DHT22;59475;52.464;13.590;2023-02-15T07:35:55;-0.31;95.93
71627;DHT22;59475;52.464;13.590;2023-02-15T07:38:23;-0.31;95.83
71627;DHT22;59475;52.464;13.590;2023-02-15T07:40:49;-0.28;95.78
71627;DHT22;59475;52.464;13.590;2023-02-15T07:43:14;-0.31;95.71
71627;DHT22;59475;52.464;13.590;2023-02-15T07:45:40;-0.32;95.82
71627;DHT22;59475;52.464;13.590;2023-02-15T07:48:05;-0.34;95.94
71627;DHT22;59475;52.464;13.590;2023-02-15T07:50:31;-0.34;96.15
71627;DHT22;59475;52.464;13.590;2023-02-15T07:52:57;-0.24;96.31
71627;DHT22;59475;52.464;13.590;2023-02-15T07:55:23;-0.18;96.17
71627;DHT22;59475;52.464;13.590;2023-02-15T07:57:49;-0.15;96.02
71627;DHT22;59475;52.464;13.590;2023-02-15T08:00:19;-0.10;96.11
71627;DHT22;59475;52.464;13.590;2023-02-15T08:02:49;-0.10;95.98
71627;DHT22;59475;52.464;13.590;2023-02-15T08:05:43;-0.06;95.95
71627;DHT22;59475;52.464;13.590;2023-02-15T08:08:10;-0.06;95.77
71627;DHT22;59475;52.464;13.590;2023-02-15T08:10:59;-0.07;95.73
71627;DHT22;59475;52.464;13.590;2023-02-15T08:13:45;-0.13;96.08
71627;DHT22;59475;52.464;13.590;2023-02-15T08:21:31;-0.04;96.11
71627;DHT22;59475;52.464;13.590;2023-02-15T08:23:57;-0.07;96.10
71627;DHT22;59475;52.464;13.590;2023-02-15T08:26:23;-0.03;96.37
71627;DHT22;59475;52.464;13.590;2023-02-15T08:28:50;0.07;96.33
71627;DHT22;59475;52.464;13.590;2023-02-15T08:31:16;0.08;96.10
71627;DHT22;59475;52.464;13.590;2023-02-15T08:33:43;0.11;96.11
71627;DHT22;59475;52.464;13.590;2023-02-15T08:36:14;0.24;96.35
71627;DHT22;59475;52.464;13.590;2023-02-15T08:38:41;0.38;96.17
71627;DHT22;59475;52.464;13.590;2023-02-15T08:41:21;0.49;96.21
71627;DHT22;59475;52.464;13.590;2023-02-15T08:43:48;0.51;95.82
71627;DHT22;59475;52.464;13.590;2023-02-15T08:46:18;0.48;95.59
71627;DHT22;59475;52.464;13.590;2023-02-15T08:48:44;0.46;95.60
71627;DHT22;59475;52.464;13.590;2023-02-15T08:51:15;0.49;95.61
71627;DHT22;59475;52.464;13.590;2023-02-15T08:53:43;0.55;95.75
71627;DHT22;59475;52.464;13.590;2023-02-15T08:56:10;0.59;95.61
71627;DHT22;59475;52.464;13.590;2023-02-15T08:58:36;0.72;95.93
71627;DHT22;59475;52.464;13.590;2023-02-15T09:01:11;0.86;95.83
71627;DHT22;59475;52.464;13.590;2023-02-15T09:03:39;0.92;95.49
71627;DHT22;59475;52.464;13.590;2023-02-15T09:06:05;0.97;95.53
71627;DHT22;59475;52.464;13.590;2023-02-15T09:08:31;0.97;95.10
71627;DHT22;59475;52.464;13.590;2023-02-15T09:11:13;1.05;94.98
71627;DHT22;59475;52.464;13.590;2023-02-15T09:13:39;1.20;95.42
71627;DHT22;59475;52.464;13.590;2023-02-15T09:16:07;1.17;94.73
71627;DHT22;59475;52.464;13.590;2023-02-15T09:18:35;1.26;95.02
71627;DHT22;59475;52.464;13.590;2023-02-15T09:21:06;1.32;94.84
71627;DHT22;59475;52.464;13.590;2023-02-15T09:23:31;1.47;94.87
71627;DHT22;59475;52.464;13.590;2023-02-15T09:26:02;1.54;94.61
71627;DHT22;59475;52.464;13.590;2023-02-15T09:28:28;1.55;94.48
71627;DHT22;59475;52.464;13.590;2023-02-15T09:30:53;1.68;94.58
71627;DHT22;59475;52.464;13.590;2023-02-15T09:33:20;1.76;94.15
71627;DHT22;59475;52.464;13.590;2023-02-15T09:35:48;1.80;93.84
71627;DHT22;59475;52.464;13.590;2023-02-15T09:38:13;1.89;94.12
71627;DHT22;59475;52.464;13.590;2023-02-15T09:40:49;1.93;93.59
71627;DHT22;59475;52.464;13.590;2023-02-15T09:46:33;1.85;93.67
71627;DHT22;59475;52.464;13.590;2023-02-15T09:49:19;2.00;93.75
71627;DHT22;59475;52.464;13.590;2023-02-15T09:54:53;2.32;93.46
71627;DHT22;59475;52.464;13.590;2023-02-15T09:57:28;2.41;93.13
71627;DHT22;59475;52.464;13.590;2023-02-15T10:00:16;2.52;92.55
71627;DHT22;59475;52.464;13.590;2023-02-15T10:03:09;2.62;92.46
71627;DHT22;59475;52.464;13.590;2023-02-15T10:08:36;2.63;91.72
71627;DHT22;59475;52.464;13.590;2023-02-15T10:28:01;3.14;90.43
71627;DHT22;59475;52.464;13.590;2023-02-15T10:30:46;3.24;90.24
71627;DHT22;59475;52.464;13.590;2023-02-15T10:44:35;4.06;88.38
71627;DHT22;59475;52.464;13.590;2023-02-15T10:50:22;4.03;87.42
71627;DHT22;59475;52.464;13.590;2023-02-15T10:53:24;4.16;87.78
71627;DHT22;59475;52.464;13.590;2023-02-15T10:56:03;4.14;87.52
71627;DHT22;59475;52.464;13.590;2023-02-15T11:01:53;4.20;87.61
71627;DHT22;59475;52.464;13.590;2023-02-15T11:04:36;4.28;87.35
71627;DHT22;59475;52.464;13.590;2023-02-15T11:07:35;4.36;87.13
71627;DHT22;59475;52.464;13.590;2023-02-15T11:12:31;4.54;86.41
71627;DHT22;59475;52.464;13.590;2023-02-15T11:15:15;4.78;86.21
71627;DHT22;59475;52.464;13.590;2023-02-15T11:17:49;5.13;86.03
71627;DHT22;59475;52.464;13.590;2023-02-15T11:22:48;5.69;82.87
71627;DHT22;59475;52.464;13.590;2023-02-15T11:25:20;5.93;82.15
71627;DHT22;59475;52.464;13.590;2023-02-15T11:27:48;6.11;81.44
71627;DHT22;59475;52.464;13.590;2023-02-15T11:30:19;6.44;80.22
71627;DHT22;59475;52.464;13.590;2023-02-15T11:32:53;6.54;79.53
71627;DHT22;59475;52.464;13.590;2023-02-15T11:35:32;6.79;79.02
71627;DHT22;59475;52.464;13.590;2023-02-15T11:40:35;6.82;77.69
71627;DHT22;59475;52.464;13.590;2023-02-15T11:43:17;6.74;78.13
71627;DHT22;59475;52.464;13.590;2023-02-15T11:45:45;6.85;78.03
71627;DHT22;59475;52.464;13.590;2023-02-15T11:48:14;6.99;77.90
71627;DHT22;59475;52.464;13.590;2023-02-15T11:50:42;6.96;76.92
71627;DHT22;59475;52.464;13.590;2023-02-15T11:53:16;7.17;77.56
71627;DHT22;59475;52.464;13.590;2023-02-15T11:55:47;7.35;77.15
71627;DHT22;59475;52.464;13.590;2023-02-15T11:58:37;7.46;75.84
71627;DHT22;59475;52.464;13.590;2023-02-15T12:01:21;7.28;77.11
71627;DHT22;59475;52.464;13.590;2023-02-15T12:03:54;7.34;76.53
71627;DHT22;59475;52.464;13.590;2023-02-15T12:06:28;7.32;76.57
71627;DHT22;59475;52.464;13.590;2023-02-15T12:09:17;7.43;76.32
71627;DHT22;59475;52.464;13.590;2023-02-15T12:11:44;7.48;76.58
71627;DHT22;59475;52.464;13.590;2023-02-15T12:14:11;7.59;75.64
71627;DHT22;59475;52.464;13.590;2023-02-15T12:16:45;7.62;75.65
71627;DHT22;59475;52.464;13.590;2023-02-15T12:19:36;7.75;75.76
71627;DHT22;59475;52.464;13.590;2023-02-15T12:22:03;7.83;75.30
71627;DHT22;59475;52.464;13.590;2023-02-15T12:24:32;7.82;75.64
71627;DHT22;59475;52.464;13.590;2023-02-15T12:27:14;7.88;75.48
71627;DHT22;59475;52.464;13.590;2023-02-15T12:29:43;7.93;75.84
71627;DHT22;59475;52.464;13.590;2023-02-15T12:32:16;7.93;75.08
71627;DHT22;59475;52.464;13.590;2023-02-15T12:34:43;7.99;74.88
71627;DHT22;59475;52.464;13.590;2023-02-15T12:37:17;7.83;75.54
71627;DHT22;59475;52.464;13.590;2023-02-15T12:42:18;8.05;75.29
71627;DHT22;59475;52.464;13.590;2023-02-15T12:44:56;8.13;75.65
71627;DHT22;59475;52.464;13.590;2023-02-15T12:47:22;8.24;75.11
71627;DHT22;59475;52.464;13.590;2023-02-15T12:52:34;8.37;74.83
71627;DHT22;59475;52.464;13.590;2023-02-15T12:57:43;8.50;74.36
71627;DHT22;59475;52.464;13.590;2023-02-15T13:02:47;8.68;74.50
71627;DHT22;59475;52.464;13.590;2023-02-15T13:05:39;8.71;73.39
71627;DHT22;59475;52.464;13.590;2023-02-15T13:08:27;8.75;74.01
71627;DHT22;59475;52.464;13.590;2023-02-15T13:13:28;8.62;73.80
71627;DHT22;59475;52.464;13.590;2023-02-15T13:16:01;8.71;73.77
71627;DHT22;59475;52.464;13.590;2023-02-15T13:18:31;8.71;73.32
71627;DHT22;59475;52.464;13.590;2023-02-15T13:21:06;8.67;73.16
71627;DHT22;59475;52.464;13.590;2023-02-15T13:23:35;8.78;73.49
71627;DHT22;59475;52.464;13.590;2023-02-15T13:26:03;8.86;73.18
71627;DHT22;59475;52.464;13.590;2023-02-15T13:28:39;8.91;72.73
71627;DHT22;59475;52.464;13.590;2023-02-15T13:31:15;8.92;72.74
71627;DHT22;59475;52.464;13.590;2023-02-15T13:33:46;8.85;72.92
71627;DHT22;59475;52.464;13.590;2023-02-15T13:41:35;8.93;73.46
71627;DHT22;59475;52.464;13.590;2023-02-15T13:46:48;8.96;73.12
71627;DHT22;59475;52.464;13.590;2023-02-15T14:02:42;9.06;72.59
71627;DHT22;59475;52.464;13.590;2023-02-15T14:05:19;9.15;72.58
71627;DHT22;59475;52.464;13.590;2023-02-15T14:10:29;9.29;72.21
71627;DHT22;59475;52.464;13.590;2023-02-15T14:13:28;9.20;71.71
71627;DHT22;59475;52.464;13.590;2023-02-15T14:16:24;9.33;71.46
71627;DHT22;59475;52.464;13.590;2023-02-15T14:21:46;9.40;71.33
71627;DHT22;59475;52.464;13.590;2023-02-15T14:27:07;9.50;70.80
71627;DHT22;59475;52.464;13.590;2023-02-15T14:29:41;9.50;70.78
71627;DHT22;59475;52.464;13.590;2023-02-15T14:32:12;9.54;70.79
71627;DHT22;59475;52.464;13.590;2023-02-15T14:34:54;9.50;71.10
71627;DHT22;59475;52.464;13.590;2023-02-15T14:43:42;9.65;71.03
71627;DHT22;59475;52.464;13.590;2023-02-15T14:49:21;9.84;70.54
71627;DHT22;59475;52.464;13.590;2023-02-15T14:56:41;9.88;70.48
71627;DHT22;59475;52.464;13.590;2023-02-15T14:59:14;9.85;70.30
71627;DHT22;59475;52.464;13.590;2023-02-15T15:01:42;9.82;70.38
71627;DHT22;59475;52.464;13.590;2023-02-15T15:04:23;9.79;70.74
71627;DHT22;59475;52.464;13.590;2023-02-15T15:09:29;9.67;70.99
71627;DHT22;59475;52.464;13.590;2023-02-15T15:14:49;9.51;71.69
71627;DHT22;59475;52.464;13.590;2023-02-15T15:20:01;9.41;72.43
71627;DHT22;59475;52.464;13.590;2023-02-15T15:22:28;9.37;73.09
71627;DHT22;59475;52.464;13.590;2023-02-15T15:27:51;9.15;73.89
71627;DHT22;59475;52.464;13.590;2023-02-15T15:48:41;8.16;78.95
71627;DHT22;59475;52.464;13.590;2023-02-15T15:51:32;8.02;79.40
71627;DHT22;59475;52.464;13.590;2023-02-15T15:53:58;7.86;79.32
71627;DHT22;59475;52.464;13.590;2023-02-15T15:56:32;7.74;79.27
71627;DHT22;59475;52.464;13.590;2023-02-15T15:59:07;7.61;80.03
71627;DHT22;59475;52.464;13.590;2023-02-15T16:01:44;7.47;80.19
71627;DHT22;59475;52.464;13.590;2023-02-15T16:04:12;7.31;80.32
71627;DHT22;59475;52.464;13.590;2023-02-15T16:06:39;7.16;81.67
71627;DHT22;59475;52.464;13.590;2023-02-15T16:11:44;6.83;82.92
71627;DHT22;59475;52.464;13.590;2023-02-15T16:14:25;6.65;82.73
71627;DHT22;59475;52.464;13.590;2023-02-15T16:16:54;6.49;83.32
71627;DHT22;59475;52.464;13.590;2023-02-15T16:19:23;6.38;83.18
71627;DHT22;59475;52.464;13.590;2023-02-15T16:21:50;6.26;84.43
71627;DHT22;59475;52.464;13.590;2023-02-15T16:27:36;5.98;85.43
71627;DHT22;59475;52.464;13.590;2023-02-15T16:30:21;5.79;85.00
71627;DHT22;59475;52.464;13.590;2023-02-15T16:32:47;5.65;85.35
71627;DHT22;59475;52.464;13.590;2023-02-15T16:35:16;5.52;85.93
71627;DHT22;59475;52.464;13.590;2023-02-15T16:37:42;5.41;86.35
71627;DHT22;59475;52.464;13.590;2023-02-15T16:40:26;5.26;86.45
71627;DHT22;59475;52.464;13.590;2023-02-15T16:42:56;5.22;87.66
71627;DHT22;59475;52.464;13.590;2023-02-15T16:45:24;5.14;87.33
71627;DHT22;59475;52.464;13.590;2023-02-15T16:47:54;5.01;86.76
71627;DHT22;59475;52.464;13.590;2023-02-15T16:50:24;4.86;86.83
71627;DHT22;59475;52.464;13.590;2023-02-15T16:52:52;4.76;86.89
71627;DHT22;59475;52.464;13.590;2023-02-15T16:55:25;4.65;86.89
71627;DHT22;59475;52.464;13.590;2023-02-15T16:57:55;4.58;88.74
71627;DHT22;59475;52.464;13.590;2023-02-15T17:00:25;4.48;88.63
71627;DHT22;59475;52.464;13.590;2023-02-15T17:03:03;4.33;88.76
71627;DHT22;59475;52.464;13.590;2023-02-15T17:05:55;4.18;88.76
71627;DHT22;59475;52.464;13.590;2023-02-15T17:08:27;4.09;88.76
71627;DHT22;59475;52.464;13.590;2023-02-15T17:13:28;3.86;88.64
71627;DHT22;59475;52.464;13.590;2023-02-15T17:18:39;3.66;89.64
71627;DHT22;59475;52.464;13.590;2023-02-15T17:21:17;3.59;89.45
71627;DHT22;59475;52.464;13.590;2023-02-15T17:23:48;3.48;89.52
71627;DHT22;59475;52.464;13.590;2023-02-15T17:26:24;3.37;89.74
71627;DHT22;59475;52.464;13.590;2023-02-15T17:28:55;3.30;89.81
71627;DHT22;59475;52.464;13.590;2023-02-15T17:31:24;3.21;90.12
71627;DHT22;59475;52.464;13.590;2023-02-15T17:33:51;3.13;89.95
71627;DHT22;59475;52.464;13.590;2023-02-15T17:36:21;3.11;90.10
71627;DHT22;59475;52.464;13.590;2023-02-15T17:41:21;3.01;90.61
71627;DHT22;59475;52.464;13.590;2023-02-15T17:43:47;2.97;90.60
71627;DHT22;59475;52.464;13.590;2023-02-15T17:46:12;2.93;90.40
71627;DHT22;59475;52.464;13.590;2023-02-15T17:48:39;2.80;90.29
71627;DHT22;59475;52.464;13.590;2023-02-15T17:51:09;2.73;90.41
71627;DHT22;59475;52.464;13.590;2023-02-15T17:53:36;2.65;90.41
71627;DHT22;59475;52.464;13.590;2023-02-15T17:56:01;2.61;90.50
71627;DHT22;59475;52.464;13.590;2023-02-15T17:58:38;2.58;90.60
71627;DHT22;59475;52.464;13.590;2023-02-15T18:01:06;2.51;90.78
71627;DHT22;59475;52.464;13.590;2023-02-15T18:03:54;2.45;90.66
71627;DHT22;59475;52.464;13.590;2023-02-15T18:06:41;2.38;90.64
71627;DHT22;59475;52.464;13.590;2023-02-15T18:09:26;2.30;90.64
71627;DHT22;59475;52.464;13.590;2023-02-15T18:12:23;2.28;90.67
71627;DHT22;59475;52.464;13.590;2023-02-15T18:14:49;2.23;90.82
71627;DHT22;59475;52.464;13.590;2023-02-15T18:17:16;2.15;90.91
71627;DHT22;59475;52.464;13.590;2023-02-15T18:19:44;2.13;91.48
71627;DHT22;59475;52.464;13.590;2023-02-15T18:22:11;2.10;91.99
71627;DHT22;59475;52.464;13.590;2023-02-15T18:24:37;2.07;92.44
71627;DHT22;59475;52.464;13.590;2023-02-15T18:27:04;2.00;92.08
71627;DHT22;59475;52.464;13.590;2023-02-15T18:29:30;1.92;92.01
71627;DHT22;59475;52.464;13.590;2023-02-15T18:31:56;1.89;91.83
71627;DHT22;59475;52.464;13.590;2023-02-15T18:34:42;1.82;91.68
71627;DHT22;59475;52.464;13.590;2023-02-15T18:37:15;1.79;91.65
71627;DHT22;59475;52.464;13.590;2023-02-15T18:39:45;1.73;91.66
71627;DHT22;59475;52.464;13.590;2023-02-15T18:42:23;1.70;91.78
71627;DHT22;59475;52.464;13.590;2023-02-15T18:44:54;1.66;92.74
71627;DHT22;59475;52.464;13.590;2023-02-15T18:47:20;1.60;92.32
71627;DHT22;59475;52.464;13.590;2023-02-15T18:49:45;1.58;92.37